Terminal Aerodrome Forecast
Issued by NWS

Home | Current Version | Previous Version | Text Only | Print | Product List | Glossary On
Versions: 1 2 3 4 5 6 7 8 9 10 11 12 13 14 15 16 17 18 19
000
FTUS43 KAPX 231739
TAFTVC
TAF
KTVC 231739Z 2318/2418 16005KT P6SM BKN010 OVC022 WS015/20030KT
     FM240000 17006KT 3SM RA BR OVC006 WS007/17032KT
     FM240600 11006KT 3SM RA BR OVC006 WS007/15035KT
     FM241300 21005KT 3SM -RA OVC006
     FM241700 26008KT 5SM -RA OVC010=

USA.gov is the U.S. government's official web portal to all federal, state and local government web resources and services.